Time;durP1;ratioP1;P1;durP2;ratioP2;P2;SDS_P1;SDS_P2;PMS_P1;PMS_P2;Temp;Humidity;BMP_temperature;BMP_pressure;BME280_temperature;BME280_humidity;BME280_pressure;Samples;Min_cycle;Max_cycle;Signal;HPM_P1;HPM_P2
2023/12/27 00:01:17;;;;;;;4.32;1.80;;;;;;;;;;5053198;28;20044;-67
2023/12/27 00:03:43;;;;;;;3.40;1.98;;;;;;;;;;5057195;28;20052;-66
2023/12/27 00:06:08;;;;;;;6.15;2.50;;;;;;;;;;5052235;28;20129;-66
2023/12/27 00:08:35;;;;;;;4.57;2.67;;;;;;;;;;5053273;28;20059;-66
2023/12/27 00:11:01;;;;;;;5.93;1.92;;;;;;;;;;5046344;28;20088;-67
2023/12/27 00:13:27;;;;;;;4.05;1.92;;;;;;;;;;5042687;28;20156;-67
2023/12/27 00:15:52;;;;;;;8.25;1.80;;;;;;;;;;5047579;28;20044;-67
2023/12/27 00:18:18;;;;;;;2.28;1.50;;;;;;;;;;5056467;28;20404;-67
2023/12/27 00:20:44;;;;;;;2.70;1.80;;;;;;;;;;5051530;28;20068;-66
2023/12/27 00:23:10;;;;;;;2.97;1.95;;;;;;;;;;5052411;28;20522;-67
2023/12/27 00:25:35;;;;;;;3.72;1.65;;;;;;;;;;5040910;28;20041;-67
2023/12/27 00:28:00;;;;;;;2.17;1.75;;;;;;;;;;5047266;28;20063;-66
2023/12/27 00:30:26;;;;;;;4.05;2.10;;;;;;;;;;5042530;28;20602;-66
2023/12/27 00:32:51;;;;;;;4.22;2.22;;;;;;;;;;5043750;28;20044;-66
2023/12/27 00:35:16;;;;;;;7.20;2.58;;;;;;;;;;5057260;28;20044;-65
2023/12/27 00:37:42;;;;;;;5.85;2.20;;;;;;;;;;5041468;28;20970;-66
2023/12/27 00:40:08;;;;;;;3.78;1.50;;;;;;;;;;5053725;28;20447;-64
2023/12/27 00:42:33;;;;;;;3.55;1.85;;;;;;;;;;5049274;28;20041;-64
2023/12/27 00:45:00;;;;;;;5.82;2.03;;;;;;;;;;5050086;28;20120;-66
2023/12/27 00:47:25;;;;;;;2.40;1.90;;;;;;;;;;5040720;28;20139;-66
2023/12/27 00:49:50;;;;;;;4.38;2.08;;;;;;;;;;5039924;28;20045;-67
2023/12/27 00:52:16;;;;;;;2.92;1.77;;;;;;;;;;5046611;28;20040;-66
2023/12/27 00:54:42;;;;;;;1.70;1.55;;;;;;;;;;5051683;28;20093;-67
2023/12/27 00:57:07;;;;;;;4.00;1.92;;;;;;;;;;5055130;28;20043;-67
2023/12/27 00:59:33;;;;;;;7.05;1.73;;;;;;;;;;5046920;28;20056;-66
2023/12/27 01:01:59;;;;;;;3.92;2.28;;;;;;;;;;5049693;28;20585;-65
2023/12/27 01:04:24;;;;;;;2.25;1.50;;;;;;;;;;5054536;28;20040;-68
2023/12/27 01:06:50;;;;;;;2.28;1.77;;;;;;;;;;5039872;28;20049;-67
2023/12/27 01:09:17;;;;;;;6.43;2.40;;;;;;;;;;5043016;28;20045;-65
2023/12/27 01:11:42;;;;;;;4.03;1.92;;;;;;;;;;5035618;28;20867;-65
2023/12/27 01:14:08;;;;;;;5.40;1.83;;;;;;;;;;5036946;28;20055;-67
2023/12/27 01:16:33;;;;;;;3.55;1.65;;;;;;;;;;5050004;28;20063;-64
2023/12/27 01:18:59;;;;;;;2.65;1.92;;;;;;;;;;5051762;28;20051;-65
2023/12/27 01:21:24;;;;;;;3.75;1.80;;;;;;;;;;5048319;28;20061;-68
2023/12/27 01:23:50;;;;;;;2.83;1.55;;;;;;;;;;5050987;28;20102;-67
2023/12/27 01:26:16;;;;;;;2.63;1.55;;;;;;;;;;5044521;28;20079;-66
2023/12/27 01:28:41;;;;;;;7.43;1.70;;;;;;;;;;5050841;28;20045;-66
2023/12/27 01:31:09;;;;;;;3.75;1.90;;;;;;;;;;5044326;28;20147;-66
2023/12/27 01:33:35;;;;;;;4.07;1.50;;;;;;;;;;5042614;28;20052;-67
2023/12/27 01:36:06;;;;;;;5.80;1.70;;;;;;;;;;5053981;28;20044;-66
2023/12/27 01:38:31;;;;;;;1.75;1.48;;;;;;;;;;5055183;28;20053;-66
2023/12/27 01:40:57;;;;;;;2.00;1.80;;;;;;;;;;5053972;28;20051;-67
2023/12/27 01:43:22;;;;;;;2.42;1.50;;;;;;;;;;5049041;28;20048;-66
2023/12/27 01:45:49;;;;;;;1.73;1.50;;;;;;;;;;5046258;28;20052;-66
2023/12/27 01:48:15;;;;;;;3.60;1.48;;;;;;;;;;5053088;28;20045;-67
2023/12/27 01:50:41;;;;;;;3.50;1.45;;;;;;;;;;5050934;28;20051;-66
2023/12/27 01:53:08;;;;;;;2.67;1.65;;;;;;;;;;5050772;28;20546;-67
2023/12/27 01:55:34;;;;;;;3.35;1.63;;;;;;;;;;5041392;28;20052;-66
2023/12/27 01:58:00;;;;;;;2.55;2.15;;;;;;;;;;5034644;28;20045;-67
2023/12/27 02:00:26;;;;;;;2.05;1.73;;;;;;;;;;5033738;28;20049;-67
2023/12/27 02:02:51;;;;;;;2.70;2.05;;;;;;;;;;5016189;28;20076;-67
2023/12/27 02:05:17;;;;;;;3.33;2.03;;;;;;;;;;5017105;28;20069;-66
2023/12/27 02:07:43;;;;;;;5.68;1.98;;;;;;;;;;5039597;28;20115;-67
2023/12/27 02:10:09;;;;;;;1.88;1.60;;;;;;;;;;5015264;28;20037;-67
2023/12/27 02:12:34;;;;;;;9.10;1.75;;;;;;;;;;5017129;28;21783;-66
2023/12/27 02:14:59;;;;;;;2.65;1.60;;;;;;;;;;5017309;28;20045;-66
2023/12/27 02:17:27;;;;;;;2.53;1.85;;;;;;;;;;5017874;28;20456;-66
2023/12/27 02:19:53;;;;;;;3.03;1.95;;;;;;;;;;5020151;28;20049;-66
2023/12/27 02:22:20;;;;;;;5.22;1.67;;;;;;;;;;5018015;28;20044;-66
2023/12/27 02:24:53;;;;;;;6.55;1.63;;;;;;;;;;5021640;28;20052;-66
2023/12/27 02:27:20;;;;;;;1.73;1.60;;;;;;;;;;5018876;28;20106;-66
2023/12/27 02:29:45;;;;;;;1.73;1.60;;;;;;;;;;5059416;28;20049;-66
2023/12/27 02:32:10;;;;;;;2.58;1.55;;;;;;;;;;5060125;28;20055;-66
2023/12/27 02:34:36;;;;;;;2.58;1.80;;;;;;;;;;5013187;28;20077;-66
2023/12/27 02:37:01;;;;;;;1.70;1.48;;;;;;;;;;5046644;28;20091;-64
2023/12/27 02:39:28;;;;;;;4.80;1.92;;;;;;;;;;5050320;28;20558;-64
2023/12/27 02:41:53;;;;;;;2.67;2.00;;;;;;;;;;5042827;28;20048;-65
2023/12/27 02:44:19;;;;;;;2.08;1.70;;;;;;;;;;5044364;28;20044;-66
2023/12/27 02:46:44;;;;;;;5.53;1.75;;;;;;;;;;5049233;28;20101;-65
2023/12/27 02:49:10;;;;;;;6.38;1.70;;;;;;;;;;5048429;28;20041;-67
2023/12/27 02:51:35;;;;;;;2.08;1.60;;;;;;;;;;5053755;28;20045;-66
2023/12/27 02:54:01;;;;;;;3.00;2.10;;;;;;;;;;5050574;28;20121;-66
2023/12/27 02:56:26;;;;;;;2.50;1.80;;;;;;;;;;5053134;28;20071;-66
2023/12/27 02:58:52;;;;;;;2.80;1.75;;;;;;;;;;5050395;28;20519;-66
2023/12/27 03:01:17;;;;;;;3.55;1.80;;;;;;;;;;5047478;28;20067;-66
2023/12/27 03:03:44;;;;;;;1.88;1.60;;;;;;;;;;5047597;28;20499;-67
2023/12/27 03:06:09;;;;;;;4.13;1.90;;;;;;;;;;5046441;28;20494;-66
2023/12/27 03:08:37;;;;;;;1.88;1.40;;;;;;;;;;5049028;28;20185;-67
2023/12/27 03:11:03;;;;;;;2.30;1.85;;;;;;;;;;5047766;28;20147;-66
2023/12/27 03:13:28;;;;;;;5.55;1.90;;;;;;;;;;5039225;28;20038;-65
2023/12/27 03:15:53;;;;;;;5.47;1.40;;;;;;;;;;5019575;28;20202;-66
2023/12/27 03:18:19;;;;;;;2.25;1.60;;;;;;;;;;5023803;28;20045;-64
2023/12/27 03:20:44;;;;;;;1.50;1.40;;;;;;;;;;5025321;28;20045;-64
2023/12/27 03:23:10;;;;;;;2.40;1.60;;;;;;;;;;5021253;28;20448;-66
2023/12/27 03:25:36;;;;;;;3.78;1.58;;;;;;;;;;5020379;28;20045;-66
2023/12/27 03:28:01;;;;;;;1.88;1.48;;;;;;;;;;5025387;28;20600;-65
2023/12/27 03:30:26;;;;;;;2.17;1.70;;;;;;;;;;5023305;28;20042;-66
2023/12/27 03:32:52;;;;;;;4.45;1.60;;;;;;;;;;5022401;28;20049;-67
2023/12/27 03:35:17;;;;;;;3.10;1.98;;;;;;;;;;5021456;28;20045;-66
2023/12/27 03:37:45;;;;;;;2.70;1.75;;;;;;;;;;5034259;28;20049;-66
2023/12/27 03:40:10;;;;;;;1.80;1.50;;;;;;;;;;5020922;28;20052;-66
2023/12/27 03:42:36;;;;;;;2.08;1.90;;;;;;;;;;5020096;28;20041;-64
2023/12/27 03:45:01;;;;;;;3.72;1.85;;;;;;;;;;5023761;28;20531;-65
2023/12/27 03:47:27;;;;;;;5.90;1.67;;;;;;;;;;5020804;28;20034;-66
2023/12/27 03:49:52;;;;;;;3.60;1.75;;;;;;;;;;5019674;28;20056;-64
2023/12/27 03:52:18;;;;;;;2.70;1.70;;;;;;;;;;5036109;28;20048;-65
2023/12/27 03:54:43;;;;;;;5.63;2.00;;;;;;;;;;5033916;28;20046;-64
2023/12/27 03:57:09;;;;;;;4.38;1.90;;;;;;;;;;5019362;28;20037;-65
2023/12/27 03:59:40;;;;;;;2.53;1.77;;;;;;;;;;5019675;28;20060;-67
2023/12/27 04:02:06;;;;;;;2.33;2.03;;;;;;;;;;5020010;28;20746;-68
2023/12/27 04:04:33;;;;;;;4.80;1.80;;;;;;;;;;5019028;28;20522;-67
2023/12/27 04:06:59;;;;;;;2.97;1.90;;;;;;;;;;5028197;28;20128;-67
2023/12/27 04:09:25;;;;;;;2.50;2.00;;;;;;;;;;5038441;28;20472;-67
2023/12/27 04:11:50;;;;;;;3.40;2.22;;;;;;;;;;5036814;28;20076;-66
2023/12/27 04:14:17;;;;;;;3.15;1.85;;;;;;;;;;5037723;28;20554;-67
2023/12/27 04:16:43;;;;;;;2.70;1.98;;;;;;;;;;5036687;28;20048;-66
2023/12/27 04:19:08;;;;;;;2.65;2.10;;;;;;;;;;5036144;28;20392;-66
2023/12/27 04:21:34;;;;;;;3.08;2.20;;;;;;;;;;5038149;28;20041;-66
2023/12/27 04:23:59;;;;;;;4.18;1.85;;;;;;;;;;5036627;28;20041;-67
2023/12/27 04:26:25;;;;;;;2.13;1.90;;;;;;;;;;5051913;28;20049;-67
2023/12/27 04:28:50;;;;;;;3.35;1.88;;;;;;;;;;5036240;28;20037;-66
2023/12/27 04:31:16;;;;;;;2.70;2.00;;;;;;;;;;5036016;28;20041;-66
2023/12/27 04:33:41;;;;;;;2.85;2.40;;;;;;;;;;5037861;28;20068;-64
2023/12/27 04:36:06;;;;;;;2.33;2.00;;;;;;;;;;5035490;28;20518;-66
2023/12/27 04:38:32;;;;;;;5.20;2.25;;;;;;;;;;5036685;28;20037;-65
2023/12/27 04:40:58;;;;;;;2.15;1.95;;;;;;;;;;5035668;28;20040;-65
2023/12/27 04:43:24;;;;;;;3.65;2.25;;;;;;;;;;5037878;28;20044;-65
2023/12/27 04:45:53;;;;;;;3.95;2.30;;;;;;;;;;5036360;28;20041;-66
2023/12/27 04:48:18;;;;;;;3.55;2.30;;;;;;;;;;5034414;28;20892;-65
2023/12/27 04:50:44;;;;;;;2.72;1.88;;;;;;;;;;5018918;28;20048;-65
2023/12/27 04:53:10;;;;;;;3.72;1.90;;;;;;;;;;5035105;28;20123;-65
2023/12/27 04:55:36;;;;;;;2.30;2.10;;;;;;;;;;5035795;28;20553;-65
2023/12/27 04:58:01;;;;;;;3.60;2.10;;;;;;;;;;5036952;28;20049;-65
2023/12/27 05:00:27;;;;;;;2.05;1.75;;;;;;;;;;5034755;28;20051;-65
2023/12/27 05:02:52;;;;;;;2.40;1.92;;;;;;;;;;5035814;28;20056;-67
2023/12/27 05:05:17;;;;;;;2.95;2.05;;;;;;;;;;5035534;28;20056;-65
2023/12/27 05:07:43;;;;;;;1.85;1.70;;;;;;;;;;5036179;28;20041;-67
2023/12/27 05:10:09;;;;;;;2.45;2.08;;;;;;;;;;5035008;28;20048;-66
2023/12/27 05:12:35;;;;;;;7.15;2.38;;;;;;;;;;5036113;28;20052;-66
2023/12/27 05:15:00;;;;;;;3.67;2.10;;;;;;;;;;5036721;28;20045;-66
2023/12/27 05:17:25;;;;;;;3.05;1.90;;;;;;;;;;5036886;28;20049;-66
2023/12/27 05:19:51;;;;;;;3.53;2.10;;;;;;;;;;5036972;28;20045;-66
2023/12/27 05:22:17;;;;;;;2.42;1.83;;;;;;;;;;5035839;28;20554;-65
2023/12/27 05:24:42;;;;;;;2.40;2.13;;;;;;;;;;5035986;28;20136;-67
2023/12/27 05:27:08;;;;;;;2.70;1.90;;;;;;;;;;5036290;28;20049;-66
2023/12/27 05:29:34;;;;;;;2.92;1.92;;;;;;;;;;5037456;28;20076;-67
2023/12/27 05:32:00;;;;;;;2.35;1.95;;;;;;;;;;5037316;28;20056;-67
2023/12/27 05:34:25;;;;;;;2.75;1.90;;;;;;;;;;5031763;28;20053;-67
2023/12/27 05:36:51;;;;;;;3.20;1.80;;;;;;;;;;5018339;28;20393;-67
2023/12/27 05:39:16;;;;;;;3.95;2.05;;;;;;;;;;5016994;28;20554;-65
2023/12/27 05:41:42;;;;;;;3.63;2.42;;;;;;;;;;5019438;28;20091;-66
2023/12/27 05:44:07;;;;;;;4.43;2.20;;;;;;;;;;5016567;28;20435;-65
2023/12/27 05:46:34;;;;;;;2.70;2.10;;;;;;;;;;5018531;28;20103;-65
2023/12/27 05:49:00;;;;;;;2.47;2.05;;;;;;;;;;5022315;28;20099;-64
2023/12/27 05:51:26;;;;;;;3.28;2.45;;;;;;;;;;5017713;28;20045;-66
2023/12/27 05:53:51;;;;;;;2.30;2.03;;;;;;;;;;5018569;28;20061;-66
2023/12/27 05:56:16;;;;;;;2.42;2.08;;;;;;;;;;5016589;28;20103;-64
2023/12/27 05:58:42;;;;;;;2.65;2.13;;;;;;;;;;5016914;28;20093;-64
2023/12/27 06:01:09;;;;;;;3.38;2.33;;;;;;;;;;5023402;28;20184;-66
2023/12/27 06:03:34;;;;;;;2.65;2.30;;;;;;;;;;5020936;28;20092;-67
2023/12/27 06:06:03;;;;;;;3.03;2.55;;;;;;;;;;5021289;28;20041;-66
2023/12/27 06:08:29;;;;;;;3.30;2.70;;;;;;;;;;5003728;28;20045;-68
2023/12/27 06:10:54;;;;;;;2.40;2.20;;;;;;;;;;5022207;28;20061;-66
2023/12/27 06:13:20;;;;;;;5.68;2.97;;;;;;;;;;5022840;28;20043;-67
2023/12/27 06:15:45;;;;;;;3.25;2.92;;;;;;;;;;5021772;28;20041;-67
2023/12/27 06:18:10;;;;;;;3.65;2.63;;;;;;;;;;5020612;28;20222;-67
2023/12/27 06:20:36;;;;;;;4.00;2.63;;;;;;;;;;5020950;28;20052;-67
2023/12/27 06:23:01;;;;;;;4.80;2.60;;;;;;;;;;5021161;28;20057;-67
2023/12/27 06:25:27;;;;;;;3.65;2.78;;;;;;;;;;5022551;28;20179;-67
2023/12/27 06:27:52;;;;;;;3.15;2.60;;;;;;;;;;5021331;28;20095;-67
2023/12/27 06:30:18;;;;;;;3.97;2.85;;;;;;;;;;5021597;28;20435;-67
2023/12/27 06:32:43;;;;;;;4.28;2.88;;;;;;;;;;5026243;28;20099;-68
2023/12/27 06:35:09;;;;;;;5.35;3.17;;;;;;;;;;5025645;28;20095;-68
2023/12/27 06:37:34;;;;;;;3.13;2.50;;;;;;;;;;5021954;28;20049;-67
2023/12/27 06:40:00;;;;;;;3.72;2.90;;;;;;;;;;5020517;28;20093;-68
2023/12/27 06:42:25;;;;;;;3.22;2.58;;;;;;;;;;5026366;28;20090;-67
2023/12/27 06:44:51;;;;;;;4.20;3.08;;;;;;;;;;5020887;28;20053;-67
2023/12/27 06:47:16;;;;;;;4.57;3.20;;;;;;;;;;5021037;28;20049;-67
2023/12/27 06:49:42;;;;;;;4.03;2.72;;;;;;;;;;5020684;28;20061;-67
2023/12/27 06:52:07;;;;;;;5.43;3.05;;;;;;;;;;5020387;28;20053;-68
2023/12/27 06:54:32;;;;;;;6.10;2.92;;;;;;;;;;5020068;28;20049;-67
2023/12/27 06:56:59;;;;;;;4.10;3.05;;;;;;;;;;5019090;28;20072;-68
2023/12/27 06:59:26;;;;;;;4.35;3.13;;;;;;;;;;5019277;28;20858;-68
2023/12/27 07:01:51;;;;;;;3.90;2.70;;;;;;;;;;5022084;28;20128;-67
2023/12/27 07:04:17;;;;;;;4.28;3.05;;;;;;;;;;5018765;28;20052;-67
2023/12/27 07:06:42;;;;;;;4.53;3.08;;;;;;;;;;5025006;28;20057;-66
2023/12/27 07:09:09;;;;;;;4.75;3.17;;;;;;;;;;5017142;28;20137;-69
2023/12/27 07:11:34;;;;;;;5.40;3.15;;;;;;;;;;5020161;28;20047;-67
2023/12/27 07:14:00;;;;;;;5.10;3.22;;;;;;;;;;5022619;28;20045;-66
2023/12/27 07:16:25;;;;;;;4.38;3.20;;;;;;;;;;5018740;28;20067;-68
2023/12/27 07:18:51;;;;;;;5.32;3.22;;;;;;;;;;5022778;28;20080;-68
2023/12/27 07:21:16;;;;;;;4.30;3.42;;;;;;;;;;5021574;28;20098;-70
2023/12/27 07:23:41;;;;;;;5.40;4.03;;;;;;;;;;5018491;28;20053;-65
2023/12/27 07:26:16;;;;;;;6.90;4.07;;;;;;;;;;5022584;28;20041;-69
2023/12/27 07:28:41;;;;;;;4.57;3.55;;;;;;;;;;5018176;28;20183;-67
2023/12/27 07:31:07;;;;;;;4.78;3.33;;;;;;;;;;5017907;28;20080;-68
2023/12/27 07:33:36;;;;;;;5.35;2.88;;;;;;;;;;5019422;28;20049;-68
2023/12/27 07:36:02;;;;;;;4.75;3.20;;;;;;;;;;5020900;28;20108;-67
2023/12/27 07:38:28;;;;;;;4.47;2.83;;;;;;;;;;5017671;28;20456;-67
2023/12/27 07:40:55;;;;;;;4.40;3.40;;;;;;;;;;5019089;28;20040;-67
2023/12/27 07:43:22;;;;;;;4.35;3.40;;;;;;;;;;5017440;28;20982;-68
2023/12/27 07:45:48;;;;;;;7.85;3.45;;;;;;;;;;5028380;28;20041;-66
2023/12/27 07:48:13;;;;;;;4.90;3.10;;;;;;;;;;5026862;28;20049;-67
2023/12/27 07:50:40;;;;;;;4.68;3.17;;;;;;;;;;5034009;28;20059;-67
2023/12/27 07:53:06;;;;;;;4.22;3.10;;;;;;;;;;5024286;28;20107;-67
2023/12/27 07:55:31;;;;;;;3.05;2.55;;;;;;;;;;5022377;28;20561;-67
2023/12/27 07:57:57;;;;;;;2.85;2.60;;;;;;;;;;5033552;28;20136;-66
2023/12/27 08:00:22;;;;;;;3.58;2.80;;;;;;;;;;5033321;28;20095;-66
2023/12/27 08:02:48;;;;;;;5.45;2.70;;;;;;;;;;5028976;28;21163;-66
2023/12/27 08:05:14;;;;;;;3.55;2.65;;;;;;;;;;5018111;28;20119;-68
2023/12/27 08:07:39;;;;;;;2.65;2.40;;;;;;;;;;5017296;28;20688;-68
2023/12/27 08:10:06;;;;;;;4.07;2.67;;;;;;;;;;5017975;28;20043;-67
2023/12/27 08:12:31;;;;;;;3.45;2.40;;;;;;;;;;5016244;28;20060;-67
2023/12/27 08:14:57;;;;;;;4.93;3.08;;;;;;;;;;5016200;28;20045;-68
2023/12/27 08:17:22;;;;;;;4.80;2.95;;;;;;;;;;5018142;28;20096;-67
2023/12/27 08:19:47;;;;;;;4.38;2.78;;;;;;;;;;5023369;28;20138;-66
2023/12/27 08:22:13;;;;;;;6.25;2.88;;;;;;;;;;5026022;28;20079;-67
2023/12/27 08:24:39;;;;;;;3.78;2.97;;;;;;;;;;5024736;28;20681;-67
2023/12/27 08:27:04;;;;;;;4.03;2.83;;;;;;;;;;5025323;28;20129;-67
2023/12/27 08:29:30;;;;;;;3.33;2.65;;;;;;;;;;5036294;28;20056;-67
2023/12/27 08:31:55;;;;;;;4.72;2.67;;;;;;;;;;5050471;28;20097;-66
2023/12/27 08:34:20;;;;;;;5.10;2.22;;;;;;;;;;5055815;28;20044;-67
2023/12/27 08:36:47;;;;;;;3.50;2.40;;;;;;;;;;5056709;28;20048;-67
2023/12/27 08:39:13;;;;;;;3.70;2.85;;;;;;;;;;5056264;28;20151;-67
2023/12/27 08:41:39;;;;;;;3.47;2.78;;;;;;;;;;5056069;28;20055;-66
2023/12/27 08:44:04;;;;;;;2.67;2.42;;;;;;;;;;5057305;28;21217;-66
2023/12/27 08:46:30;;;;;;;3.45;2.47;;;;;;;;;;5047358;28;20060;-67
2023/12/27 08:48:55;;;;;;;4.63;2.80;;;;;;;;;;5030711;28;20045;-67
2023/12/27 08:51:21;;;;;;;6.65;2.78;;;;;;;;;;5028615;28;20163;-67
2023/12/27 08:53:46;;;;;;;3.25;2.63;;;;;;;;;;5035985;28;20049;-68
2023/12/27 08:56:12;;;;;;;4.80;3.40;;;;;;;;;;5045377;28;20534;-68
2023/12/27 08:58:38;;;;;;;3.80;2.55;;;;;;;;;;5039155;28;20046;-67
2023/12/27 09:01:03;;;;;;;3.75;2.80;;;;;;;;;;5040738;28;20044;-68
2023/12/27 09:03:29;;;;;;;3.75;2.88;;;;;;;;;;5037250;28;20575;-66
2023/12/27 09:05:54;;;;;;;5.13;2.67;;;;;;;;;;5040468;28;20039;-67
2023/12/27 09:08:19;;;;;;;6.78;2.70;;;;;;;;;;5033330;28;20037;-67
2023/12/27 09:10:45;;;;;;;5.80;2.83;;;;;;;;;;5032553;28;20055;-67
2023/12/27 09:13:10;;;;;;;3.47;2.63;;;;;;;;;;5034026;28;20106;-67
2023/12/27 09:15:36;;;;;;;3.08;2.45;;;;;;;;;;5032325;28;21155;-67
2023/12/27 09:18:01;;;;;;;3.75;2.30;;;;;;;;;;5032190;28;20056;-66
2023/12/27 09:20:27;;;;;;;5.43;2.42;;;;;;;;;;5032350;28;20097;-67
2023/12/27 09:22:52;;;;;;;3.53;2.30;;;;;;;;;;5039151;28;20045;-68
2023/12/27 09:25:18;;;;;;;3.65;2.40;;;;;;;;;;5035872;28;20886;-70
2023/12/27 09:27:45;;;;;;;3.47;2.67;;;;;;;;;;5038410;28;21061;-67
2023/12/27 09:30:11;;;;;;;5.30;2.53;;;;;;;;;;5039811;28;20075;-67
2023/12/27 09:32:37;;;;;;;5.72;3.08;;;;;;;;;;5032149;28;20136;-67
2023/12/27 09:35:03;;;;;;;3.30;2.50;;;;;;;;;;5044032;28;20041;-66
2023/12/27 09:37:29;;;;;;;4.32;2.97;;;;;;;;;;5038364;28;20070;-66
2023/12/27 09:39:55;;;;;;;4.78;2.80;;;;;;;;;;5042042;28;20049;-69
2023/12/27 09:42:20;;;;;;;3.90;2.67;;;;;;;;;;5038244;28;20091;-68
2023/12/27 09:44:48;;;;;;;3.85;2.58;;;;;;;;;;5050844;28;20531;-68
2023/12/27 09:47:15;;;;;;;3.17;2.45;;;;;;;;;;5036827;28;20044;-68
2023/12/27 09:49:41;;;;;;;5.68;2.40;;;;;;;;;;5039463;28;20095;-68
2023/12/27 09:52:07;;;;;;;3.42;2.58;;;;;;;;;;5033124;28;20071;-69
2023/12/27 09:54:33;;;;;;;3.03;2.72;;;;;;;;;;5011748;28;20057;-66
2023/12/27 09:56:59;;;;;;;2.85;2.45;;;;;;;;;;5024346;28;20080;-67
2023/12/27 09:59:29;;;;;;;7.28;3.22;;;;;;;;;;5029550;28;20052;-67
2023/12/27 10:01:59;;;;;;;4.32;2.85;;;;;;;;;;5037908;28;20079;-67
2023/12/27 10:04:50;;;;;;;4.55;2.97;;;;;;;;;;5024333;28;20048;-69
2023/12/27 10:07:17;;;;;;;2.97;2.28;;;;;;;;;;5029423;28;20037;-68
2023/12/27 10:09:43;;;;;;;3.35;2.65;;;;;;;;;;5024069;28;20412;-67
2023/12/27 10:12:13;;;;;;;4.40;2.67;;;;;;;;;;5027188;28;20044;-67
2023/12/27 10:14:40;;;;;;;2.75;2.30;;;;;;;;;;5022898;28;20312;-68
2023/12/27 10:17:05;;;;;;;4.13;2.33;;;;;;;;;;5024597;28;20047;-69
2023/12/27 10:19:44;;;;;;;3.60;2.50;;;;;;;;;;5024588;28;20358;-66
2023/12/27 10:22:12;;;;;;;3.58;2.47;;;;;;;;;;5041239;28;20037;-70
2023/12/27 10:24:38;;;;;;;4.97;2.50;;;;;;;;;;5023352;28;20086;-67
2023/12/27 10:27:08;;;;;;;2.97;2.30;;;;;;;;;;5027886;28;20041;-68
2023/12/27 10:29:34;;;;;;;3.78;2.72;;;;;;;;;;5024310;28;20049;-68
2023/12/27 10:32:04;;;;;;;5.60;2.42;;;;;;;;;;5027672;28;20084;-69
2023/12/27 10:34:29;;;;;;;3.05;2.72;;;;;;;;;;5024102;28;20052;-68
2023/12/27 10:36:59;;;;;;;3.15;2.60;;;;;;;;;;5027473;28;20053;-67
2023/12/27 10:39:25;;;;;;;3.63;2.72;;;;;;;;;;5025316;28;20056;-68
2023/12/27 10:41:54;;;;;;;4.07;2.72;;;;;;;;;;5027190;28;20058;-68
2023/12/27 10:44:21;;;;;;;5.32;2.60;;;;;;;;;;5037569;28;20041;-68
2023/12/27 10:46:48;;;;;;;3.60;2.45;;;;;;;;;;5042661;28;20056;-67
2023/12/27 10:49:14;;;;;;;3.90;2.40;;;;;;;;;;5058892;28;20048;-69
2023/12/27 10:51:41;;;;;;;4.43;2.50;;;;;;;;;;5058093;28;20117;-70
2023/12/27 10:54:08;;;;;;;4.18;2.92;;;;;;;;;;5058676;28;20044;-67
2023/12/27 10:56:39;;;;;;;3.92;2.55;;;;;;;;;;5057477;28;20098;-69
2023/12/27 10:59:08;;;;;;;3.42;2.58;;;;;;;;;;5058725;28;20052;-68
2023/12/27 11:01:43;;;;;;;2.75;2.30;;;;;;;;;;5057611;28;20047;-72
2023/12/27 11:04:10;;;;;;;3.78;2.47;;;;;;;;;;5057003;28;20598;-67
2023/12/27 11:06:39;;;;;;;5.20;2.47;;;;;;;;;;5057153;28;21291;-68
2023/12/27 11:09:13;;;;;;;2.95;2.53;;;;;;;;;;5059090;28;20073;-69
2023/12/27 11:11:40;;;;;;;4.32;2.90;;;;;;;;;;5021799;28;20078;-68
2023/12/27 11:14:11;;;;;;;4.53;2.58;;;;;;;;;;5036753;28;20065;-68
2023/12/27 11:16:42;;;;;;;4.00;2.00;;;;;;;;;;5038752;28;20044;-68
2023/12/27 11:19:08;;;;;;;3.53;2.27;;;;;;;;;;5036632;28;20048;-68
2023/12/27 11:21:37;;;;;;;2.40;2.20;;;;;;;;;;5038902;28;20337;-67
2023/12/27 11:24:04;;;;;;;2.75;2.35;;;;;;;;;;5038871;28;20110;-69
2023/12/27 11:26:33;;;;;;;2.38;2.17;;;;;;;;;;5036533;28;20049;-69
2023/12/27 11:29:00;;;;;;;3.83;2.60;;;;;;;;;;5039614;28;20045;-68
2023/12/27 11:31:26;;;;;;;3.28;2.13;;;;;;;;;;5040416;28;20516;-67
2023/12/27 11:33:52;;;;;;;2.85;1.70;;;;;;;;;;5057596;28;20045;-67
2023/12/27 11:36:19;;;;;;;2.08;1.73;;;;;;;;;;5056120;28;20072;-68
2023/12/27 11:38:46;;;;;;;3.03;1.77;;;;;;;;;;5055674;28;20529;-69
2023/12/27 11:41:12;;;;;;;3.58;1.80;;;;;;;;;;5057852;28;20044;-68
2023/12/27 11:44:03;;;;;;;2.80;1.55;;;;;;;;;;5057100;28;20044;-68
2023/12/27 11:46:32;;;;;;;3.17;1.90;;;;;;;;;;5056379;28;20047;-68
2023/12/27 11:49:00;;;;;;;2.15;1.60;;;;;;;;;;5058145;28;20073;-68
2023/12/27 11:51:38;;;;;;;2.67;1.70;;;;;;;;;;5056865;28;20132;-69
2023/12/27 11:54:08;;;;;;;3.03;1.45;;;;;;;;;;5056688;28;20717;-70
2023/12/27 11:56:36;;;;;;;1.83;1.65;;;;;;;;;;5053075;28;20055;-71
2023/12/27 11:59:05;;;;;;;1.98;1.80;;;;;;;;;;5021495;28;20049;-68
2023/12/27 12:01:36;;;;;;;5.55;1.70;;;;;;;;;;5029054;28;20102;-68
2023/12/27 12:04:22;;;;;;;3.47;1.90;;;;;;;;;;5026160;28;20037;-68
2023/12/27 12:06:54;;;;;;;2.05;1.80;;;;;;;;;;5019438;28;21136;-69
2023/12/27 12:09:30;;;;;;;1.58;1.40;;;;;;;;;;5020573;28;20096;-72
2023/12/27 12:11:55;;;;;;;2.63;1.80;;;;;;;;;;5015553;28;20156;-68
2023/12/27 12:14:21;;;;;;;2.42;1.50;;;;;;;;;;5028659;28;20338;-68
2023/12/27 12:16:47;;;;;;;2.47;1.75;;;;;;;;;;5031728;28;20044;-68
2023/12/27 12:19:15;;;;;;;2.20;1.50;;;;;;;;;;5036329;28;20571;-67
2023/12/27 12:21:41;;;;;;;5.22;1.88;;;;;;;;;;5038053;28;20788;-70
2023/12/27 12:24:08;;;;;;;2.80;1.90;;;;;;;;;;5041102;28;20041;-67
2023/12/27 12:26:34;;;;;;;4.35;1.75;;;;;;;;;;5036596;28;20582;-67
2023/12/27 12:29:03;;;;;;;2.58;2.10;;;;;;;;;;5006261;28;20052;-68
2023/12/27 12:31:30;;;;;;;1.90;1.70;;;;;;;;;;5019551;28;20053;-68
2023/12/27 12:33:56;;;;;;;1.50;1.40;;;;;;;;;;5031757;28;20106;-71
2023/12/27 12:36:22;;;;;;;1.98;1.80;;;;;;;;;;5025112;28;20045;-69
2023/12/27 12:38:48;;;;;;;2.72;2.05;;;;;;;;;;5023694;28;20059;-68
2023/12/27 12:41:13;;;;;;;1.85;1.67;;;;;;;;;;5035953;28;20051;-72
2023/12/27 12:43:38;;;;;;;2.55;1.67;;;;;;;;;;5034556;28;20045;-67
2023/12/27 12:46:04;;;;;;;2.92;1.80;;;;;;;;;;5025869;28;20095;-70
2023/12/27 12:48:30;;;;;;;3.33;1.67;;;;;;;;;;5016464;28;20065;-69
2023/12/27 12:51:15;;;;;;;4.03;1.80;;;;;;;;;;5038483;28;20044;-68
2023/12/27 12:53:41;;;;;;;1.67;1.45;;;;;;;;;;5035828;28;20068;-71
2023/12/27 12:56:07;;;;;;;2.05;1.75;;;;;;;;;;5026140;28;20121;-70
2023/12/27 12:58:35;;;;;;;1.98;1.50;;;;;;;;;;5019556;28;20198;-69
2023/12/27 13:01:01;;;;;;;2.13;1.90;;;;;;;;;;5035164;28;20047;-69
2023/12/27 13:03:32;;;;;;;2.42;1.70;;;;;;;;;;5037599;28;20045;-71
2023/12/27 13:05:59;;;;;;;2.72;1.58;;;;;;;;;;5027744;28;20151;-70
2023/12/27 13:08:24;;;;;;;2.58;1.80;;;;;;;;;;5018129;28;20224;-70
2023/12/27 13:10:50;;;;;;;2.20;1.42;;;;;;;;;;5017194;28;20487;-69
2023/12/27 13:13:15;;;;;;;2.65;1.70;;;;;;;;;;5023624;28;20727;-70
2023/12/27 13:15:41;;;;;;;4.32;1.70;;;;;;;;;;5034614;28;20049;-68
2023/12/27 13:18:07;;;;;;;1.60;1.45;;;;;;;;;;5028864;28;20096;-68
2023/12/27 13:20:33;;;;;;;3.63;2.00;;;;;;;;;;5034979;28;20048;-68
2023/12/27 13:22:59;;;;;;;2.17;1.88;;;;;;;;;;5036237;28;20714;-68
2023/12/27 13:25:24;;;;;;;2.47;2.15;;;;;;;;;;5036376;28;20068;-68
2023/12/27 13:27:50;;;;;;;2.22;1.83;;;;;;;;;;5033911;28;21069;-68
2023/12/27 13:30:15;;;;;;;2.83;1.58;;;;;;;;;;5034165;28;20045;-70
2023/12/27 13:32:41;;;;;;;1.92;1.83;;;;;;;;;;5034958;28;20074;-69
2023/12/27 13:35:07;;;;;;;2.28;1.90;;;;;;;;;;5035215;28;20036;-71
2023/12/27 13:37:32;;;;;;;2.05;1.85;;;;;;;;;;5034404;28;20053;-68
2023/12/27 13:39:58;;;;;;;2.30;2.10;;;;;;;;;;5036010;28;20080;-70
2023/12/27 13:42:23;;;;;;;2.72;1.85;;;;;;;;;;5035760;28;20049;-67
2023/12/27 13:44:49;;;;;;;3.33;2.10;;;;;;;;;;5032802;28;20033;-68
2023/12/27 13:47:16;;;;;;;2.63;2.20;;;;;;;;;;5035788;28;20657;-68
2023/12/27 13:49:43;;;;;;;2.88;1.92;;;;;;;;;;5033743;28;20156;-67
2023/12/27 13:52:09;;;;;;;3.88;2.47;;;;;;;;;;5036102;28;20044;-68
2023/12/27 13:54:35;;;;;;;3.20;2.25;;;;;;;;;;5034288;28;20075;-68
2023/12/27 13:57:00;;;;;;;3.17;2.30;;;;;;;;;;5033517;28;20741;-68
2023/12/27 13:59:26;;;;;;;3.70;2.08;;;;;;;;;;5034992;28;20045;-67
2023/12/27 14:01:52;;;;;;;2.38;1.98;;;;;;;;;;5035541;28;20768;-68
2023/12/27 14:04:17;;;;;;;4.88;2.10;;;;;;;;;;5035715;28;20040;-68
2023/12/27 14:06:42;;;;;;;2.35;2.10;;;;;;;;;;5035292;28;20103;-67
2023/12/27 14:09:08;;;;;;;2.60;2.13;;;;;;;;;;5035995;28;20037;-67
2023/12/27 14:11:34;;;;;;;3.25;2.42;;;;;;;;;;5032746;28;20056;-67
2023/12/27 14:14:00;;;;;;;3.88;2.45;;;;;;;;;;5019212;28;20036;-69
2023/12/27 14:16:26;;;;;;;4.00;2.63;;;;;;;;;;5034990;28;20545;-68
2023/12/27 14:18:53;;;;;;;2.53;2.33;;;;;;;;;;5033738;28;20045;-69
2023/12/27 14:21:20;;;;;;;3.15;2.50;;;;;;;;;;5036908;28;20090;-67
2023/12/27 14:23:46;;;;;;;4.35;2.30;;;;;;;;;;5038560;28;20481;-67
2023/12/27 14:26:12;;;;;;;3.78;2.20;;;;;;;;;;5039618;28;20045;-68
2023/12/27 14:28:38;;;;;;;2.58;2.13;;;;;;;;;;5038462;28;20033;-66
2023/12/27 14:31:03;;;;;;;3.30;2.40;;;;;;;;;;5037810;28;20279;-67
2023/12/27 14:33:29;;;;;;;3.83;2.20;;;;;;;;;;5038766;28;20045;-67
2023/12/27 14:35:54;;;;;;;7.68;2.38;;;;;;;;;;5033168;28;20084;-68
2023/12/27 14:38:19;;;;;;;2.80;2.35;;;;;;;;;;5036497;28;20135;-68